Alexanders Store, Texas
Current Conditions -  °F | °C
As of 8:35 PM on Saturday 22 Nov 2014 (Local Time) from KOCH Reporting Station
Overcast Overcast  
Wind Chill: 63°   Ceiling: 900
Heat Index: 63°   Visibility: 6mi
Dew Point: 61°   Wind: 14mph
Humidity: 94%   Direction: 110°ESE
Pressure: 29.82"   Gusts: NA
Location:  31.7022°N, 93.9592°W
Report Text: KOCH 230235Z AUTO 11012KT 6SM BKN009 OVC013 17/16 A2982 RMK AO1 LTG DSNT ALQDS P0007
Loading
Personal Weather Stations






























Interactive Weather Map New forecast layout! Learn more

10-Day Weather Forecast

Advertisements
Track Severe Weather on mobile